createdAt,value
2022-09-04T00:00:55.647Z,33
2022-09-04T00:02:02.783Z,38
2022-09-04T00:03:15.131Z,41
2022-09-04T00:04:32.824Z,41
2022-09-04T00:05:47.270Z,40
2022-09-04T00:06:56.612Z,36
2022-09-04T00:08:11.315Z,45
2022-09-04T00:09:20.779Z,34
2022-09-04T00:10:32.979Z,34
2022-09-04T00:13:24.843Z,32
2022-09-04T00:14:29.367Z,25
2022-09-04T00:15:38.624Z,25
2022-09-04T00:16:51.895Z,30
2022-09-04T00:17:59.881Z,29
2022-09-04T00:19:04.191Z,27
2022-09-04T00:20:15.691Z,30
2022-09-04T00:21:35.243Z,35
2022-09-04T00:22:44.499Z,29
2022-09-04T00:24:15.512Z,25
2022-09-04T00:25:19.615Z,27
2022-09-04T00:26:42.304Z,34
2022-09-04T00:30:06.719Z,40
2022-09-04T00:31:16.529Z,36
2022-09-04T00:32:23.775Z,43
2022-09-04T00:35:28.993Z,51
2022-09-04T00:36:38.927Z,55
2022-09-04T00:37:48.231Z,58
2022-09-04T00:39:00.663Z,54
2022-09-04T00:40:22.335Z,70
2022-09-04T00:41:26.440Z,58
2022-09-04T00:42:33.464Z,60
2022-09-04T00:44:03.399Z,57
2022-09-04T00:45:18.073Z,58
2022-09-04T00:46:32.871Z,48
2022-09-04T00:47:40.559Z,53
2022-09-04T00:49:03.108Z,52
2022-09-04T00:50:37.540Z,44
2022-09-04T00:51:52.007Z,45
2022-09-04T00:53:01.687Z,39
2022-09-04T00:54:31.959Z,31
2022-09-04T00:55:46.547Z,39
2022-09-04T00:56:55.995Z,33
2022-09-04T00:58:09.387Z,32
2022-09-04T00:59:14.031Z,29
2022-09-04T01:00:23.567Z,30
2022-09-04T01:01:45.402Z,25
2022-09-04T01:02:50.743Z,28
2022-09-04T01:04:00.542Z,27
2022-09-04T01:05:09.987Z,27
2022-09-04T01:06:22.383Z,41
2022-09-04T01:07:29.292Z,41
2022-09-04T01:08:38.711Z,40
2022-09-04T01:09:48.251Z,40
2022-09-04T01:11:03.644Z,43
2022-09-04T01:12:12.807Z,48
2022-09-04T01:13:27.547Z,52
2022-09-04T01:14:42.109Z,45
2022-09-04T01:15:46.819Z,47
2022-09-04T01:16:56.201Z,52
2022-09-04T01:18:05.423Z,48
2022-09-04T01:19:40.847Z,50
2022-09-04T01:20:50.220Z,49
2022-09-04T01:25:31.507Z,43
2022-09-04T01:26:57.263Z,36
2022-09-04T01:28:11.635Z,31
2022-09-04T01:29:26.871Z,31
2022-09-04T01:30:41.863Z,34
2022-09-04T01:32:09.655Z,25
2022-09-04T01:33:20.139Z,34
2022-09-04T01:35:04.267Z,28
2022-09-04T01:36:18.931Z,26
2022-09-04T01:37:29.428Z,25
2022-09-04T01:39:04.875Z,27
2022-09-04T01:40:20.415Z,29
2022-09-04T01:41:29.836Z,31
2022-09-04T01:44:19.259Z,38
2022-09-04T01:45:39.860Z,38
2022-09-04T01:46:52.132Z,36
2022-09-04T01:48:06.815Z,41
2022-09-04T01:49:21.187Z,40
2022-09-04T01:50:32.603Z,45
2022-09-04T01:51:37.111Z,39
2022-09-04T01:52:41.598Z,45
2022-09-04T01:54:02.503Z,40
2022-09-04T01:55:12.215Z,45
2022-09-04T01:56:24.409Z,43
2022-09-04T01:57:34.088Z,41
2022-09-04T01:59:01.150Z,39
2022-09-04T02:00:13.719Z,40
2022-09-04T02:01:21.084Z,38
2022-09-04T02:02:27.911Z,43
2022-09-04T02:03:42.587Z,36
2022-09-04T02:04:52.695Z,28
2022-09-04T02:08:12.987Z,30
2022-09-04T02:09:22.343Z,28
2022-09-04T02:10:34.495Z,25
2022-09-04T02:12:02.520Z,34
2022-09-04T02:13:21.107Z,35
2022-09-04T02:14:35.995Z,26
2022-09-04T02:15:47.969Z,30
2022-09-04T02:17:02.549Z,27
2022-09-04T02:18:18.727Z,30
2022-09-04T02:19:39.039Z,31
2022-09-04T02:20:46.192Z,44
2022-09-04T02:22:00.475Z,42
2022-09-04T02:23:04.821Z,37
2022-09-04T02:24:17.045Z,38
2022-09-04T02:25:33.319Z,42
2022-09-04T02:26:41.311Z,53
2022-09-04T02:27:48.535Z,49
2022-09-04T02:28:52.844Z,54
2022-09-04T02:30:10.894Z,56
2022-09-04T02:31:20.748Z,53
2022-09-04T02:32:37.495Z,55
2022-09-04T02:33:52.339Z,46
2022-09-04T02:35:06.955Z,51
2022-09-04T02:36:16.359Z,48
2022-09-04T02:37:20.574Z,49
2022-09-04T02:38:27.664Z,44
2022-09-04T02:39:42.651Z,42
2022-09-04T02:40:52.191Z,37
2022-09-04T02:42:06.835Z,40
2022-09-04T02:43:16.679Z,34
2022-09-04T02:44:26.192Z,33
2022-09-04T02:45:35.703Z,36
2022-09-04T02:47:16.015Z,31
2022-09-04T02:48:28.227Z,32
2022-09-04T02:49:43.299Z,34
2022-09-04T02:50:57.975Z,25
2022-09-04T02:52:12.628Z,31
2022-09-04T02:53:19.664Z,33
2022-09-04T02:54:32.031Z,31
2022-09-04T02:55:46.828Z,33
2022-09-04T02:57:01.364Z,25
2022-09-04T02:58:15.979Z,35
2022-09-04T02:59:28.534Z,32
2022-09-04T03:00:33.234Z,39
2022-09-04T03:01:49.951Z,39
2022-09-04T03:02:58.632Z,38
2022-09-04T03:04:26.676Z,44
2022-09-04T03:05:36.948Z,37
2022-09-04T03:07:02.784Z,37
2022-09-04T03:08:28.495Z,38
2022-09-04T03:09:40.970Z,32
2022-09-04T03:10:50.979Z,33
2022-09-04T03:12:17.144Z,30
2022-09-04T03:13:28.380Z,32
2022-09-04T03:14:43.180Z,30
2022-09-04T03:15:47.531Z,25
2022-09-04T03:17:01.856Z,26
2022-09-04T03:18:17.117Z,27
2022-09-04T03:19:32.791Z,26
2022-09-04T03:20:44.928Z,29
2022-09-04T03:21:57.051Z,27
2022-09-04T03:23:07.603Z,32
2022-09-04T03:24:21.020Z,34
2022-09-04T03:25:30.479Z,33
2022-09-04T03:26:51.151Z,32
2022-09-04T03:29:19.852Z,27
2022-09-04T03:30:32.165Z,32
2022-09-04T03:31:38.857Z,29
2022-09-04T03:32:58.606Z,35
2022-09-04T03:35:11.280Z,35
2022-09-04T03:36:23.537Z,34
2022-09-04T03:37:36.164Z,36
2022-09-04T03:38:53.813Z,41
2022-09-04T03:40:04.115Z,42
2022-09-04T03:41:28.907Z,45
2022-09-04T03:42:41.755Z,51
2022-09-04T03:43:56.560Z,52
2022-09-04T03:45:00.787Z,56
2022-09-04T03:46:15.704Z,57
2022-09-04T03:47:28.399Z,57
2022-09-04T03:48:48.423Z,55
2022-09-04T03:49:58.023Z,53
2022-09-04T03:51:15.043Z,52
2022-09-04T03:52:24.295Z,56
2022-09-04T03:53:51.791Z,52
2022-09-04T03:54:56.324Z,48
2022-09-04T03:56:10.804Z,53
2022-09-04T03:57:45.411Z,54
2022-09-04T03:59:00.158Z,45
2022-09-04T04:00:09.530Z,42
2022-09-04T04:01:16.401Z,44
2022-09-04T04:02:43.026Z,39
2022-09-04T04:03:55.624Z,38
2022-09-04T04:05:00.289Z,35
2022-09-04T04:06:14.875Z,35
2022-09-04T04:07:24.351Z,33
2022-09-04T04:10:17.876Z,29
2022-09-04T04:11:30.228Z,29
2022-09-04T04:13:35.563Z,28
2022-09-04T04:14:47.768Z,31
2022-09-04T04:16:05.425Z,35
2022-09-04T04:17:12.505Z,34
2022-09-04T04:18:43.267Z,37
2022-09-04T04:19:58.051Z,32
2022-09-04T04:21:07.568Z,32
2022-09-04T04:22:16.788Z,42
2022-09-04T04:23:21.135Z,38
2022-09-04T04:24:33.447Z,45
2022-09-04T04:25:43.379Z,48
2022-09-04T04:27:00.906Z,49
2022-09-04T04:28:13.827Z,50
2022-09-04T04:29:18.543Z,46
2022-09-04T04:30:25.667Z,43
2022-09-04T04:31:38.136Z,45
2022-09-04T04:32:52.635Z,49
2022-09-04T04:34:07.217Z,46
2022-09-04T04:35:27.154Z,44
2022-09-04T04:36:40.177Z,44
2022-09-04T04:37:47.707Z,31
2022-09-04T04:38:59.907Z,36
2022-09-04T04:40:42.751Z,29
2022-09-04T04:41:57.363Z,30
2022-09-04T04:43:13.030Z,26
2022-09-04T04:44:17.573Z,33
2022-09-04T04:45:22.367Z,26
2022-09-04T04:46:38.035Z,31
2022-09-04T04:47:47.515Z,30
2022-09-04T04:49:47.664Z,25
2022-09-04T04:51:17.446Z,35
2022-09-04T04:52:30.083Z,38
2022-09-04T04:53:44.582Z,35
2022-09-04T04:55:04.163Z,39
2022-09-04T04:56:18.575Z,34
2022-09-04T04:57:33.306Z,36
2022-09-04T04:58:47.823Z,36
2022-09-04T04:59:57.095Z,36
2022-09-04T05:01:11.670Z,32
2022-09-04T05:02:15.701Z,31
2022-09-04T05:03:30.202Z,25
2022-09-04T05:04:45.086Z,31
2022-09-04T05:06:00.010Z,25
2022-09-04T05:07:14.707Z,33
2022-09-04T05:08:24.251Z,29
2022-09-04T05:09:38.927Z,26
2022-09-04T05:10:43.327Z,30
2022-09-04T05:11:56.247Z,31
2022-09-04T05:13:11.248Z,25
2022-09-04T05:14:30.758Z,30
2022-09-04T05:15:53.135Z,29
2022-09-04T05:16:55.684Z,25
2022-09-04T05:19:45.439Z,30
2022-09-04T05:21:00.267Z,32
2022-09-04T05:22:09.658Z,29
2022-09-04T05:23:28.774Z,33
2022-09-04T05:24:35.166Z,28
2022-09-04T05:25:50.295Z,30
2022-09-04T05:27:02.774Z,37
2022-09-04T05:28:15.475Z,36
2022-09-04T05:29:31.890Z,40
2022-09-04T05:31:01.130Z,42
2022-09-04T05:32:08.642Z,41
2022-09-04T05:33:23.178Z,51
2022-09-04T05:35:14.862Z,48
2022-09-04T05:36:29.447Z,47
2022-09-04T05:37:33.902Z,48
2022-09-04T05:38:43.734Z,49
2022-09-04T05:40:16.478Z,48
2022-09-04T05:43:14.055Z,41
2022-09-04T05:44:28.878Z,44
2022-09-04T05:45:41.950Z,43
2022-09-04T05:46:51.722Z,38
2022-09-04T05:48:06.834Z,35
2022-09-04T05:49:17.286Z,33
2022-09-04T05:50:32.219Z,26
2022-09-04T05:51:46.803Z,27
2022-09-04T05:53:01.307Z,30
2022-09-04T05:54:14.046Z,25
2022-09-04T05:55:33.162Z,33
2022-09-04T05:56:42.859Z,36
2022-09-04T05:57:55.330Z,26
2022-09-04T05:59:03.306Z,27
2022-09-04T06:00:16.102Z,30
2022-09-04T06:01:27.774Z,37
2022-09-04T06:02:43.758Z,41
2022-09-04T06:03:51.091Z,39
2022-09-04T06:05:26.442Z,35
2022-09-04T06:06:41.582Z,44
2022-09-04T06:07:51.495Z,47
2022-09-04T06:08:58.731Z,48
2022-09-04T06:10:03.394Z,48
2022-09-04T06:11:41.064Z,51
2022-09-04T06:12:56.854Z,51
2022-09-04T06:14:11.886Z,49
2022-09-04T06:15:26.462Z,51
2022-09-04T06:16:40.143Z,52
2022-09-04T06:17:52.214Z,51
2022-09-04T06:19:05.667Z,46
2022-09-04T06:20:20.326Z,45
2022-09-04T06:21:35.462Z,43
2022-09-04T06:22:47.828Z,42
2022-09-04T06:23:49.294Z,36
2022-09-04T06:25:01.554Z,25
2022-09-04T06:26:29.374Z,38
2022-09-04T06:27:44.064Z,34
2022-09-04T06:28:56.378Z,32
2022-09-04T06:30:18.338Z,27
2022-09-04T06:31:22.679Z,31
2022-09-04T06:32:32.234Z,30
2022-09-04T06:33:44.878Z,26
2022-09-04T06:34:59.406Z,30
2022-09-04T06:36:17.409Z,25
2022-09-04T06:37:26.802Z,33
2022-09-04T06:38:44.970Z,31
2022-09-04T06:40:06.450Z,33
2022-09-04T06:41:15.970Z,37
2022-09-04T06:42:28.977Z,36
2022-09-04T06:43:38.877Z,33
2022-09-04T06:45:02.905Z,40
2022-09-04T06:46:12.849Z,41
2022-09-04T06:47:23.741Z,45
2022-09-04T06:48:40.263Z,49
2022-09-04T06:49:45.490Z,48
2022-09-04T06:50:55.333Z,55
2022-09-04T06:52:10.105Z,57
2022-09-04T06:53:18.845Z,54
2022-09-04T06:54:27.420Z,57
2022-09-04T06:55:39.100Z,53
2022-09-04T06:56:53.637Z,56
2022-09-04T06:58:08.271Z,51
2022-09-04T06:59:18.091Z,55
2022-09-04T07:00:27.698Z,52
2022-09-04T07:01:32.407Z,47
2022-09-04T07:02:45.400Z,48
2022-09-04T07:04:59.798Z,44
2022-09-04T07:06:10.674Z,44
2022-09-04T07:07:18.869Z,42
2022-09-04T07:08:26.553Z,42
2022-09-04T07:09:34.111Z,42
2022-09-04T07:10:41.145Z,36
2022-09-04T07:11:49.425Z,36
2022-09-04T07:13:02.201Z,30
2022-09-04T07:14:12.538Z,30
2022-09-04T07:15:26.180Z,32
2022-09-04T07:16:40.789Z,27
2022-09-04T07:17:45.690Z,34
2022-09-04T07:19:00.929Z,34
2022-09-04T07:20:15.685Z,38
2022-09-04T07:21:28.586Z,32
2022-09-04T07:22:45.769Z,30
2022-09-04T07:24:01.150Z,36
2022-09-04T07:25:05.401Z,38
2022-09-04T07:26:15.467Z,43
2022-09-04T07:27:26.169Z,44
2022-09-04T07:28:38.833Z,43
2022-09-04T07:29:46.377Z,52
2022-09-04T07:30:54.489Z,51
2022-09-04T07:32:07.157Z,57
2022-09-04T07:33:12.085Z,53
2022-09-04T07:34:21.923Z,55
2022-09-04T07:35:26.529Z,66
2022-09-04T07:36:39.877Z,59
2022-09-04T07:37:50.498Z,64
2022-09-04T07:39:00.722Z,64
2022-09-04T07:40:10.542Z,58
2022-09-04T07:41:20.871Z,56
2022-09-04T07:42:33.730Z,58
2022-09-04T07:43:54.575Z,54
2022-09-04T07:44:59.953Z,50
2022-09-04T07:46:04.840Z,46
2022-09-04T07:47:14.173Z,48
2022-09-04T07:48:29.991Z,42
2022-09-04T07:49:42.781Z,45
2022-09-04T07:50:55.469Z,28
2022-09-04T07:53:14.501Z,43
2022-09-04T07:54:22.789Z,30
2022-09-04T07:55:31.261Z,36
2022-09-04T07:56:40.885Z,36
2022-09-04T07:57:55.573Z,31
2022-09-04T07:59:08.101Z,45
2022-09-04T08:00:22.525Z,35
2022-09-04T08:02:38.349Z,41
2022-09-04T08:03:53.780Z,47
2022-09-04T08:05:06.639Z,48
2022-09-04T08:06:21.994Z,54
2022-09-04T08:07:31.684Z,50
2022-09-04T08:09:48.482Z,60
2022-09-04T08:11:01.409Z,58
2022-09-04T08:12:11.033Z,62
2022-09-04T08:13:15.579Z,61
2022-09-04T08:14:30.561Z,63
2022-09-04T08:15:45.443Z,72
2022-09-04T08:17:00.102Z,80
2022-09-04T08:18:07.417Z,79
2022-09-04T08:19:17.862Z,77
2022-09-04T08:20:30.486Z,70
2022-09-04T08:21:40.321Z,77
2022-09-04T08:22:44.862Z,78
2022-09-04T08:23:54.617Z,75
2022-09-04T08:25:04.065Z,74
2022-09-04T08:26:16.106Z,78
2022-09-04T08:27:28.994Z,77
2022-09-04T08:28:46.193Z,87
2022-09-04T08:29:57.845Z,84
2022-09-04T08:31:07.966Z,80
2022-09-04T08:32:13.378Z,89
2022-09-04T08:33:27.961Z,81
2022-09-04T08:34:42.657Z,80
2022-09-04T08:35:55.150Z,87
2022-09-04T08:37:07.534Z,88
2022-09-04T08:38:22.315Z,91
2022-09-04T08:39:37.193Z,91
2022-09-04T08:42:03.201Z,92
2022-09-04T08:43:18.060Z,96
2022-09-04T08:44:32.573Z,95
2022-09-04T08:45:42.591Z,99
2022-09-04T08:46:51.892Z,98
2022-09-04T08:48:04.381Z,101
2022-09-04T08:50:25.533Z,103
2022-09-04T08:51:40.289Z,111
2022-09-04T08:52:50.057Z,106
2022-09-04T08:54:05.125Z,98
2022-09-04T08:55:15.541Z,103
2022-09-04T08:56:26.196Z,103
2022-09-04T08:57:35.708Z,105
2022-09-04T08:58:50.444Z,99
2022-09-04T09:00:06.221Z,103
2022-09-04T09:01:22.370Z,109
2022-09-04T09:02:37.026Z,106
2022-09-04T09:03:50.028Z,101
2022-09-04T09:06:20.489Z,108
2022-09-04T09:07:35.973Z,113
2022-09-04T09:08:51.080Z,110
2022-09-04T09:10:06.093Z,112
2022-09-04T09:11:20.817Z,114
2022-09-04T09:12:40.725Z,113
2022-09-04T09:13:45.104Z,112
2022-09-04T09:14:56.045Z,118
2022-09-04T09:16:15.470Z,115
2022-09-04T09:17:28.048Z,115
2022-09-04T09:18:41.096Z,115
2022-09-04T09:19:54.613Z,112
2022-09-04T09:21:09.420Z,99
2022-09-04T09:22:24.401Z,113
2022-09-04T09:23:32.044Z,114
2022-09-04T09:24:44.295Z,111
2022-09-04T09:25:58.765Z,111
2022-09-04T09:27:13.420Z,111
2022-09-04T09:28:28.476Z,94
2022-09-04T09:29:36.108Z,119
2022-09-04T09:30:45.461Z,115
2022-09-04T09:32:03.695Z,111
2022-09-04T09:33:12.112Z,110
2022-09-04T09:34:25.773Z,90
2022-09-04T09:35:38.464Z,109
2022-09-04T09:36:48.192Z,102
2022-09-04T09:38:04.250Z,107
2022-09-04T09:39:13.132Z,114
2022-09-04T09:41:34.783Z,109
2022-09-04T09:42:45.221Z,112
2022-09-04T09:44:00.098Z,118
2022-09-04T09:45:09.940Z,112
2022-09-04T09:46:27.100Z,121
2022-09-04T09:47:37.884Z,122
2022-09-04T09:48:48.109Z,122
2022-09-04T09:49:58.492Z,115
2022-09-04T09:51:13.320Z,115
2022-09-04T09:52:22.120Z,117
2022-09-04T09:53:32.368Z,116
2022-09-04T09:54:39.556Z,129
2022-09-04T09:55:46.944Z,108
2022-09-04T09:57:02.040Z,117
2022-09-04T09:58:18.471Z,123
2022-09-04T09:59:33.512Z,95
2022-09-04T10:00:55.873Z,95
2022-09-04T10:02:09.686Z,113
2022-09-04T10:03:22.165Z,113
2022-09-04T10:04:32.519Z,106
2022-09-04T10:05:46.356Z,108
2022-09-04T10:07:00.348Z,95
2022-09-04T10:08:15.116Z,96
2022-09-04T10:09:27.372Z,102
2022-09-04T10:10:39.884Z,92
2022-09-04T10:11:53.937Z,91
2022-09-04T10:13:08.248Z,96
2022-09-04T10:14:24.502Z,92
2022-09-04T10:15:35.276Z,93
2022-09-04T10:16:45.096Z,87
2022-09-04T10:17:59.916Z,94
2022-09-04T10:19:11.121Z,102
2022-09-04T10:20:16.161Z,82
2022-09-04T10:21:26.560Z,78
2022-09-04T10:22:40.915Z,83
2022-09-04T10:23:56.592Z,90
2022-09-04T10:25:00.932Z,77
2022-09-04T10:26:10.644Z,79
2022-09-04T10:27:23.290Z,85
2022-09-04T10:28:38.354Z,73
2022-09-04T10:29:48.600Z,68
2022-09-04T10:30:58.492Z,67
2022-09-04T10:32:08.342Z,68
2022-09-04T10:33:24.975Z,69
2022-09-04T10:34:40.066Z,70
2022-09-04T10:35:54.802Z,71
2022-09-04T10:37:09.522Z,60
2022-09-04T10:38:22.090Z,57
2022-09-04T10:39:27.142Z,64
2022-09-04T10:40:50.715Z,55
2022-09-04T10:41:57.666Z,55
2022-09-04T10:43:07.986Z,60
2022-09-04T10:44:20.908Z,51
2022-09-04T10:45:30.647Z,51
2022-09-04T10:46:43.881Z,50
2022-09-04T10:47:53.499Z,51
2022-09-04T10:49:08.598Z,44
2022-09-04T10:50:13.586Z,42
2022-09-04T10:51:22.978Z,36
2022-09-04T10:52:36.466Z,37
2022-09-04T10:53:51.642Z,39
2022-09-04T10:55:02.506Z,43
2022-09-04T10:56:17.139Z,40
2022-09-04T10:57:27.002Z,42
2022-09-04T10:58:39.633Z,43
2022-09-04T10:59:49.330Z,42
2022-09-04T11:01:01.639Z,39
2022-09-04T11:02:11.647Z,47
2022-09-04T11:03:22.441Z,41
2022-09-04T11:04:29.622Z,48
2022-09-04T11:05:44.322Z,47
2022-09-04T11:06:58.758Z,56
2022-09-04T11:08:13.347Z,45
2022-09-04T11:09:27.842Z,52
2022-09-04T11:10:32.174Z,59
2022-09-04T11:11:41.678Z,62
2022-09-04T11:12:49.310Z,62
2022-09-04T11:14:03.832Z,59
2022-09-04T11:15:13.335Z,60
2022-09-04T11:16:25.009Z,65
2022-09-04T11:17:37.674Z,58
2022-09-04T11:18:47.407Z,61
2022-09-04T11:19:59.671Z,50
2022-09-04T11:21:14.591Z,55
2022-09-04T11:22:28.974Z,46
2022-09-04T11:23:41.057Z,45
2022-09-04T11:24:53.495Z,45
2022-09-04T11:26:01.198Z,40
2022-09-04T11:27:11.258Z,45
2022-09-04T11:28:25.892Z,35
2022-09-04T11:29:40.671Z,36
2022-09-04T11:30:53.111Z,32
2022-09-04T11:32:09.511Z,28
2022-09-04T11:33:21.066Z,30
2022-09-04T11:34:35.554Z,26
2022-09-04T11:35:44.942Z,31
2022-09-04T11:36:55.023Z,27
2022-09-04T11:38:04.536Z,25
2022-09-04T11:39:20.484Z,38
2022-09-04T11:40:33.662Z,36
2022-09-04T11:41:45.211Z,33
2022-09-04T11:42:56.506Z,34
2022-09-04T11:44:08.041Z,29
2022-09-04T11:45:18.346Z,53
2022-09-04T11:47:42.014Z,51
2022-09-04T11:48:51.682Z,43
2022-09-04T11:50:04.042Z,38
2022-09-04T11:51:21.690Z,37
2022-09-04T11:52:36.518Z,40
2022-09-04T11:53:48.702Z,40
2022-09-04T11:54:59.583Z,43
2022-09-04T11:56:12.572Z,42
2022-09-04T11:57:21.138Z,59
2022-09-04T11:58:35.634Z,61
2022-09-04T11:59:46.370Z,51
2022-09-04T12:00:53.654Z,55
2022-09-04T12:02:01.170Z,56
2022-09-04T12:03:12.733Z,43
2022-09-04T12:04:31.535Z,61
2022-09-04T12:05:46.518Z,64
2022-09-04T12:06:54.138Z,70
2022-09-04T12:08:09.177Z,75
2022-09-04T12:09:21.624Z,75
2022-09-04T12:10:37.538Z,78
2022-09-04T12:11:48.988Z,91
2022-09-04T12:12:59.966Z,85
2022-09-04T12:14:10.924Z,96
2022-09-04T12:15:26.566Z,85
2022-09-04T12:16:41.283Z,94
2022-09-04T12:17:55.657Z,88
2022-09-04T12:19:08.626Z,91
2022-09-04T12:20:16.510Z,93
2022-09-04T12:21:31.366Z,89
2022-09-04T12:22:44.790Z,81
2022-09-04T12:24:00.547Z,85
2022-09-04T12:25:10.867Z,85
2022-09-04T12:26:20.967Z,81
2022-09-04T12:27:36.034Z,79
2022-09-04T12:28:51.666Z,87
2022-09-04T12:30:06.286Z,77
2022-09-04T12:31:16.051Z,83
2022-09-04T12:32:30.622Z,81
2022-09-04T12:33:45.222Z,79
2022-09-04T12:34:50.190Z,84
2022-09-04T12:36:03.122Z,75
2022-09-04T12:37:14.970Z,75
2022-09-04T12:38:28.118Z,79
2022-09-04T12:39:45.165Z,75
2022-09-04T12:40:59.682Z,83
2022-09-04T12:42:10.530Z,86
2022-09-04T12:43:20.573Z,78
2022-09-04T12:44:30.258Z,72
2022-09-04T12:45:42.485Z,77
2022-09-04T12:46:56.880Z,75
2022-09-04T12:48:06.418Z,75
2022-09-04T12:49:12.654Z,71
2022-09-04T12:50:19.702Z,80
2022-09-04T12:51:26.462Z,83
2022-09-04T12:52:36.150Z,85
2022-09-04T12:53:52.545Z,84
2022-09-04T12:55:04.054Z,90
2022-09-04T12:56:18.902Z,81
2022-09-04T12:57:28.782Z,88
2022-09-04T12:58:33.494Z,87
2022-09-04T12:59:48.294Z,85
2022-09-04T13:00:57.814Z,98
2022-09-04T13:02:10.177Z,96
2022-09-04T13:03:24.697Z,94
2022-09-04T13:04:37.346Z,99
2022-09-04T13:05:53.471Z,110
2022-09-04T13:06:59.582Z,115
2022-09-04T13:08:12.494Z,118
2022-09-04T13:09:17.093Z,124
2022-09-04T13:10:27.374Z,123
2022-09-04T13:11:40.126Z,126
2022-09-04T13:12:44.874Z,123
2022-09-04T13:13:54.650Z,132
2022-09-04T13:15:09.486Z,127
2022-09-04T13:16:17.433Z,124
2022-09-04T13:17:30.074Z,120
2022-09-04T13:18:40.062Z,131
2022-09-04T13:19:47.466Z,123
2022-09-04T13:20:57.298Z,120
2022-09-04T13:22:10.141Z,118
2022-09-04T13:23:26.012Z,120
2022-09-04T13:24:43.651Z,109
2022-09-04T13:25:48.942Z,103
2022-09-04T13:26:58.302Z,106
2022-09-04T13:28:07.986Z,104
2022-09-04T13:29:12.198Z,108
2022-09-04T13:30:27.342Z,109
2022-09-04T13:31:33.881Z,101
2022-09-04T13:32:45.474Z,110
2022-09-04T13:34:00.654Z,111
2022-09-04T13:35:17.465Z,114
2022-09-04T13:36:25.630Z,115
2022-09-04T13:37:40.414Z,111
2022-09-04T13:38:47.792Z,122
2022-09-04T13:39:57.436Z,121
2022-09-04T13:41:09.718Z,130
2022-09-04T13:42:19.587Z,127
2022-09-04T13:43:29.287Z,113
2022-09-04T13:44:42.095Z,114
2022-09-04T13:45:56.591Z,115
2022-09-04T13:47:01.184Z,120
2022-09-04T13:48:05.414Z,122
2022-09-04T13:49:13.122Z,118
2022-09-04T13:50:17.666Z,122
2022-09-04T13:51:32.950Z,119
2022-09-04T13:52:37.786Z,116
2022-09-04T13:53:47.255Z,121
2022-09-04T13:55:05.694Z,120
2022-09-04T13:56:15.614Z,117
2022-09-04T13:57:20.631Z,118
2022-09-04T13:58:28.250Z,114
2022-09-04T13:59:33.540Z,125
2022-09-04T14:00:39.002Z,116
2022-09-04T14:01:49.190Z,113
2022-09-04T14:02:53.719Z,120
2022-09-04T14:04:01.041Z,110
2022-09-04T14:05:08.042Z,109
2022-09-04T14:06:12.390Z,100
2022-09-04T14:07:17.454Z,101
2022-09-04T14:08:27.435Z,96
2022-09-04T14:09:31.882Z,99
2022-09-04T14:10:44.318Z,94
2022-09-04T14:11:54.522Z,96
2022-09-04T14:13:08.867Z,96
2022-09-04T14:14:27.790Z,100
2022-09-04T14:15:40.542Z,90
2022-09-04T14:16:49.079Z,96
2022-09-04T14:17:54.230Z,97
2022-09-04T14:19:12.306Z,102
2022-09-04T14:20:18.465Z,96
2022-09-04T14:21:27.811Z,98
2022-09-04T14:22:45.442Z,95
2022-09-04T14:24:07.746Z,98
2022-09-04T14:25:12.322Z,104
2022-09-04T14:26:22.878Z,103
2022-09-04T14:27:35.696Z,106
2022-09-04T14:28:43.218Z,102
2022-09-04T14:29:50.319Z,105
2022-09-04T14:31:00.496Z,107
2022-09-04T14:34:41.334Z,111
2022-09-04T14:35:53.898Z,110
2022-09-04T14:37:06.606Z,111
2022-09-04T14:38:16.196Z,116
2022-09-04T14:39:26.865Z,117
2022-09-04T14:40:37.342Z,114
2022-09-04T14:41:47.079Z,114
2022-09-04T14:43:18.166Z,117
2022-09-04T14:44:30.298Z,118
2022-09-04T14:45:43.179Z,126
2022-09-04T14:46:53.472Z,130
2022-09-04T14:48:03.402Z,130
2022-09-04T14:49:08.999Z,125
2022-09-04T14:50:36.119Z,135
2022-09-04T14:51:52.492Z,138
2022-09-04T14:53:01.839Z,127
2022-09-04T14:54:05.983Z,124
2022-09-04T14:55:20.818Z,115
2022-09-04T14:56:32.890Z,120
2022-09-04T14:57:40.202Z,122
2022-09-04T14:58:50.675Z,119
2022-09-04T15:00:06.381Z,118
2022-09-04T15:01:18.895Z,118
2022-09-04T15:02:46.747Z,115
2022-09-04T15:03:56.594Z,111
2022-09-04T15:05:03.552Z,101
2022-09-04T15:06:21.428Z,98
2022-09-04T15:09:23.158Z,106
2022-09-04T15:10:30.058Z,100
2022-09-04T15:11:44.780Z,95
2022-09-04T15:12:49.078Z,106
2022-09-04T15:14:13.643Z,99
2022-09-04T15:15:17.874Z,100
2022-09-04T15:16:28.604Z,107
2022-09-04T15:17:33.422Z,105
2022-09-04T15:18:37.942Z,111
2022-09-04T15:19:42.470Z,109
2022-09-04T15:20:55.034Z,113
2022-09-04T15:22:31.198Z,117
2022-09-04T15:23:40.602Z,116
2022-09-04T15:24:58.395Z,117
2022-09-04T15:26:11.482Z,113
2022-09-04T15:27:18.642Z,118
2022-09-04T15:28:26.158Z,115
2022-09-04T15:29:57.066Z,118
2022-09-04T15:31:06.865Z,121
2022-09-04T15:33:05.457Z,117
2022-09-04T15:34:12.842Z,120
2022-09-04T15:35:23.745Z,121
2022-09-04T15:36:28.282Z,120
2022-09-04T15:37:32.479Z,126
2022-09-04T15:38:36.610Z,119
2022-09-04T15:39:47.687Z,118
2022-09-04T15:41:13.025Z,117
2022-09-04T15:41:56.258Z,116
2022-09-04T15:43:00.814Z,116
2022-09-04T15:44:05.010Z,118
2022-09-04T15:45:15.026Z,110
2022-09-04T15:46:22.895Z,110
2022-09-04T15:47:35.559Z,102
2022-09-04T15:49:07.406Z,104
2022-09-04T15:50:26.214Z,94
2022-09-04T15:51:34.786Z,99
2022-09-04T15:54:47.233Z,94
2022-09-04T15:55:59.903Z,88
2022-09-04T15:57:09.752Z,93
2022-09-04T15:58:30.357Z,87
2022-09-04T15:59:47.170Z,93
2022-09-04T16:02:32.923Z,95
2022-09-04T16:03:45.045Z,99
2022-09-04T16:04:55.079Z,100
2022-09-04T16:06:21.193Z,103
2022-09-04T16:07:28.381Z,108
2022-09-04T16:08:42.247Z,108
2022-09-04T16:09:52.042Z,116
2022-09-04T16:10:59.970Z,117
2022-09-04T16:12:20.231Z,116
2022-09-04T16:13:24.934Z,118
2022-09-04T16:14:29.805Z,116
2022-09-04T16:15:34.084Z,119
2022-09-04T16:16:41.334Z,112
2022-09-04T16:17:46.329Z,112
2022-09-04T16:18:53.937Z,107
2022-09-04T16:20:02.309Z,112
2022-09-04T16:21:15.728Z,111
2022-09-04T16:22:24.733Z,106
2022-09-04T16:23:34.825Z,98
2022-09-04T16:24:42.589Z,94
2022-09-04T16:25:52.533Z,88
2022-09-04T16:26:57.049Z,92
2022-09-04T16:28:22.293Z,88
2022-09-04T16:29:29.265Z,84
2022-09-04T16:30:45.248Z,83
2022-09-04T16:32:03.282Z,76
2022-09-04T16:33:20.634Z,83
2022-09-04T16:34:41.018Z,80
2022-09-04T16:35:53.693Z,78
2022-09-04T16:38:53.562Z,79
2022-09-04T16:40:03.434Z,79
2022-09-04T16:41:12.757Z,80
2022-09-04T16:42:55.547Z,85
2022-09-04T16:44:05.657Z,86
2022-09-04T16:45:14.283Z,88
2022-09-04T16:46:28.783Z,90
2022-09-04T16:47:34.169Z,92
2022-09-04T16:48:52.560Z,101
2022-09-04T16:49:57.221Z,99
2022-09-04T16:51:27.347Z,101
2022-09-04T16:52:19.481Z,104
2022-09-04T16:55:18.925Z,103
2022-09-04T16:56:34.538Z,98
2022-09-04T16:57:38.369Z,100
2022-09-04T17:00:29.393Z,92
2022-09-04T17:01:44.538Z,86
2022-09-04T17:03:09.692Z,85
2022-09-04T17:04:19.066Z,83
2022-09-04T17:05:34.421Z,77
2022-09-04T17:06:46.865Z,75
2022-09-04T17:07:59.865Z,71
2022-09-04T17:09:15.377Z,73
2022-09-04T17:10:22.201Z,68
2022-09-04T17:11:35.637Z,69
2022-09-04T17:12:51.046Z,66
2022-09-04T17:14:05.274Z,65
2022-09-04T17:15:13.053Z,75
2022-09-04T17:16:22.723Z,68
2022-09-04T17:17:30.484Z,71
2022-09-04T17:18:31.769Z,72
2022-09-04T17:19:36.341Z,74
2022-09-04T17:22:05.780Z,76
2022-09-04T17:23:57.704Z,71
2022-09-04T17:25:45.140Z,85
2022-09-04T17:28:35.455Z,85
2022-09-04T17:28:54.907Z,94
2022-09-04T17:29:05.457Z,96
2022-09-04T17:29:06.608Z,94
2022-09-04T17:29:27.616Z,96
2022-09-04T17:30:04.509Z,90
2022-09-04T17:31:08.984Z,90
2022-09-04T17:32:43.017Z,90
2022-09-04T17:36:11.145Z,89
2022-09-04T17:38:49.313Z,87
2022-09-04T17:39:15.561Z,82
2022-09-04T17:40:34.518Z,68
2022-09-04T17:40:44.972Z,75
2022-09-04T17:40:45.715Z,80
2022-09-04T17:41:00.559Z,72
2022-09-04T17:41:35.132Z,64
2022-09-04T17:42:40.121Z,68
2022-09-04T17:43:53.644Z,63
2022-09-04T17:45:22.406Z,58
2022-09-04T17:46:33.106Z,66
2022-09-04T17:47:45.925Z,51
2022-09-04T17:48:50.889Z,65
2022-09-04T17:49:55.528Z,60
2022-09-04T17:51:00.296Z,60